createdAt,value
2019-03-20T00:00:23.256Z,12.23
2019-03-20T00:02:51.659Z,14.63
2019-03-20T00:05:22.806Z,11.35
2019-03-20T00:07:51.194Z,14.28
2019-03-20T00:10:24.458Z,20.82
2019-03-20T00:12:52.891Z,24.27
2019-03-20T00:15:21.355Z,15.78
2019-03-20T00:17:49.737Z,21.48
2019-03-20T00:20:18.226Z,18.73
2019-03-20T00:22:47.750Z,19.95
2019-03-20T00:25:16.256Z,15.93
2019-03-20T00:27:44.645Z,15.83
2019-03-20T00:30:20.596Z,17.77
2019-03-20T00:32:49.019Z,17.35
2019-03-20T00:35:19.972Z,18.60
2019-03-20T00:37:48.517Z,15.45
2019-03-20T00:40:18.053Z,18.87
2019-03-20T00:42:46.988Z,18.17
2019-03-20T00:45:18.128Z,13.50
2019-03-20T00:47:46.619Z,14.58
2019-03-20T00:50:16.457Z,23.07
2019-03-20T00:52:44.922Z,16.00
2019-03-20T00:55:14.397Z,20.30
2019-03-20T00:57:43.010Z,19.37
2019-03-20T01:00:22.907Z,12.85
2019-03-20T01:02:51.327Z,15.05
2019-03-20T01:05:20.716Z,13.10
2019-03-20T01:07:50.393Z,13.65
2019-03-20T01:10:21.323Z,21.37
2019-03-20T01:12:50.021Z,17.73
2019-03-20T01:15:18.691Z,10.82
2019-03-20T01:17:47.253Z,14.90
2019-03-20T01:20:20.453Z,14.98
2019-03-20T01:22:49.301Z,18.40
2019-03-20T01:25:18.460Z,14.65
2019-03-20T01:27:46.945Z,11.28
2019-03-20T01:30:34.056Z,18.12
2019-03-20T01:33:14.267Z,15.98
2019-03-20T01:35:43.095Z,14.73
2019-03-20T01:38:14.114Z,13.72
2019-03-20T01:40:42.520Z,17.37
2019-03-20T01:43:10.964Z,12.10
2019-03-20T01:45:39.737Z,9.83
2019-03-20T01:48:08.136Z,15.83
2019-03-20T01:50:36.654Z,11.12
2019-03-20T01:53:07.058Z,19.92
2019-03-20T01:55:35.518Z,20.25
2019-03-20T01:58:04.145Z,17.70
2019-03-20T02:00:32.799Z,13.55
2019-03-20T02:03:01.255Z,15.20
2019-03-20T02:05:35.945Z,14.25
2019-03-20T02:07:59.829Z,12.23
2019-03-20T02:10:28.453Z,12.07
2019-03-20T02:12:58.756Z,10.40
2019-03-20T02:15:38.124Z,10.78
2019-03-20T02:17:57.488Z,13.98
2019-03-20T02:20:29.755Z,9.53
2019-03-20T02:22:58.193Z,10.38
2019-03-20T02:25:26.598Z,14.35
2019-03-20T02:27:54.991Z,9.63
2019-03-20T02:30:23.539Z,9.85
2019-03-20T02:32:51.961Z,9.68
2019-03-20T02:35:21.461Z,13.80
2019-03-20T02:37:49.876Z,12.30
2019-03-20T02:40:22.118Z,15.10
2019-03-20T02:42:55.902Z,16.27
2019-03-20T02:45:24.327Z,5.97
2019-03-20T02:47:52.744Z,13.93
2019-03-20T02:50:21.189Z,9.95
2019-03-20T02:52:49.561Z,8.63
2019-03-20T02:55:17.952Z,10.30
2019-03-20T02:57:46.343Z,11.50
2019-03-20T03:00:17.174Z,9.58
2019-03-20T03:02:45.592Z,13.28
2019-03-20T03:05:15.788Z,12.20
2019-03-20T03:07:44.294Z,13.95
2019-03-20T03:10:20.334Z,9.73
2019-03-20T03:12:48.730Z,12.23
2019-03-20T03:15:19.670Z,10.23
2019-03-20T03:17:49.151Z,9.13
2019-03-20T03:20:17.576Z,12.60
2019-03-20T03:22:48.636Z,13.80
2019-03-20T03:25:17.038Z,12.47
2019-03-20T03:27:45.449Z,10.90
2019-03-20T03:30:19.052Z,10.80
2019-03-20T03:32:48.667Z,12.13
2019-03-20T03:35:19.510Z,12.00
2019-03-20T03:37:47.157Z,11.95
2019-03-20T03:40:23.642Z,13.72
2019-03-20T03:42:52.044Z,8.70
2019-03-20T03:45:22.090Z,10.25
2019-03-20T03:47:50.427Z,7.30
2019-03-20T03:50:18.813Z,11.77
2019-03-20T03:52:47.197Z,10.88
2019-03-20T03:55:16.670Z,14.65
2019-03-20T03:57:45.533Z,15.23
2019-03-20T04:00:19.057Z,9.50
2019-03-20T04:02:50.053Z,11.15
2019-03-20T04:05:22.276Z,12.70
2019-03-20T04:07:50.696Z,12.88
2019-03-20T04:10:19.204Z,13.22
2019-03-20T04:12:47.701Z,8.18
2019-03-20T04:15:18.961Z,14.55
2019-03-20T04:17:49.839Z,13.58
2019-03-20T04:20:20.140Z,20.65
2019-03-20T04:22:48.551Z,12.82
2019-03-20T04:25:17.077Z,12.60
2019-03-20T04:27:45.493Z,10.55
2019-03-20T04:30:15.239Z,11.83
2019-03-20T04:32:43.653Z,17.45
2019-03-20T04:35:12.450Z,20.65
2019-03-20T04:37:45.684Z,16.00
2019-03-20T04:40:21.159Z,15.95
2019-03-20T04:42:53.348Z,13.45
2019-03-20T04:45:24.223Z,15.08
2019-03-20T04:47:55.271Z,13.62
2019-03-20T04:50:24.180Z,19.10
2019-03-20T04:52:52.568Z,12.15
2019-03-20T04:55:20.970Z,21.70
2019-03-20T04:57:49.381Z,20.65
2019-03-20T05:00:22.718Z,18.40
2019-03-20T05:02:51.130Z,20.27
2019-03-20T05:05:19.585Z,23.27
2019-03-20T05:07:49.152Z,20.52
2019-03-20T05:10:20.786Z,33.83
2019-03-20T05:12:51.634Z,31.07
2019-03-20T05:15:20.009Z,26.77
2019-03-20T05:17:48.425Z,34.63
2019-03-20T05:20:20.811Z,30.70
2019-03-20T05:22:52.335Z,28.40
2019-03-20T05:25:21.817Z,39.27
2019-03-20T05:27:50.204Z,35.30
2019-03-20T05:30:19.051Z,33.78
2019-03-20T05:32:51.611Z,31.48
2019-03-20T05:35:20.047Z,31.87
2019-03-20T05:37:48.474Z,32.80
2019-03-20T05:40:19.807Z,41.48
2019-03-20T05:42:48.245Z,36.93
2019-03-20T05:45:20.758Z,45.38
2019-03-20T05:50:18.974Z,31.62
2019-03-20T05:52:48.657Z,40.45
2019-03-20T05:55:16.965Z,46.37
2019-03-20T05:57:45.469Z,40.88
2019-03-20T06:00:19.783Z,44.63
2019-03-20T06:02:48.169Z,41.65
2019-03-20T06:05:16.595Z,42.93
2019-03-20T06:07:45.015Z,40.23
2019-03-20T06:10:15.525Z,37.78
2019-03-20T06:12:44.139Z,38.02
2019-03-20T06:15:13.589Z,38.08
2019-03-20T06:17:41.989Z,43.55
2019-03-20T06:20:14.686Z,40.25
2019-03-20T06:22:43.588Z,37.90
2019-03-20T06:25:13.623Z,40.00
2019-03-20T06:27:42.085Z,42.58
2019-03-20T06:30:13.679Z,35.73
2019-03-20T06:32:42.126Z,41.20
2019-03-20T06:35:10.940Z,33.78
2019-03-20T06:37:41.846Z,36.45
2019-03-20T06:40:13.949Z,41.18
2019-03-20T06:42:46.460Z,35.78
2019-03-20T06:45:30.028Z,38.60
2019-03-20T06:47:58.530Z,31.90
2019-03-20T06:52:11.877Z,32.35
2019-03-20T06:54:42.891Z,36.67
2019-03-20T06:58:16.722Z,34.13
2019-03-20T07:01:00.232Z,32.05
2019-03-20T07:03:40.792Z,34.92
2019-03-20T07:06:25.410Z,36.77
2019-03-20T07:09:01.778Z,41.83
2019-03-20T07:11:29.033Z,41.88
2019-03-20T07:13:57.428Z,38.35
2019-03-20T07:16:25.825Z,41.60
2019-03-20T07:18:54.247Z,39.08
2019-03-20T07:21:22.636Z,43.25
2019-03-20T07:23:51.041Z,40.83
2019-03-20T07:26:19.475Z,45.50
2019-03-20T07:28:52.020Z,43.43
2019-03-20T07:33:48.065Z,41.30
2019-03-20T07:36:16.431Z,48.05
2019-03-20T07:38:44.821Z,43.37
2019-03-20T07:41:13.216Z,47.88
2019-03-20T07:43:41.664Z,48.68
2019-03-20T07:46:10.079Z,43.08
2019-03-20T07:48:40.660Z,48.93
2019-03-20T07:51:17.065Z,44.27
2019-03-20T07:53:46.021Z,47.73
2019-03-20T07:56:16.283Z,44.80
2019-03-20T07:59:03.943Z,44.83
2019-03-20T08:01:32.349Z,42.13
2019-03-20T08:04:00.783Z,40.70
2019-03-20T08:06:29.170Z,46.90
2019-03-20T08:08:57.700Z,49.67
2019-03-20T08:11:26.138Z,50.83
2019-03-20T08:13:54.533Z,46.40
2019-03-20T08:16:22.924Z,51.40
2019-03-20T08:18:51.607Z,53.02
2019-03-20T08:21:25.092Z,43.68
2019-03-20T08:23:53.477Z,52.80
2019-03-20T08:26:26.770Z,52.33
2019-03-20T08:28:55.162Z,46.15
2019-03-20T08:31:23.601Z,50.43
2019-03-20T08:33:54.294Z,52.53
2019-03-20T08:36:22.741Z,55.95
2019-03-20T08:38:51.110Z,46.92
2019-03-20T08:41:19.497Z,46.20
2019-03-20T08:43:48.011Z,50.63
2019-03-20T08:49:13.429Z,45.55
2019-03-20T08:51:41.811Z,47.78
2019-03-20T08:54:10.252Z,44.73
2019-03-20T08:56:38.695Z,43.98
2019-03-20T08:59:07.108Z,43.78
2019-03-20T09:01:38.143Z,39.50
2019-03-20T09:04:06.638Z,41.65
2019-03-20T09:06:38.925Z,45.92
2019-03-20T09:09:08.030Z,38.55
2019-03-20T09:11:36.407Z,40.95
2019-03-20T09:14:04.879Z,37.20
2019-03-20T09:16:33.333Z,40.60
2019-03-20T09:19:01.751Z,40.78
2019-03-20T09:21:33.050Z,37.30
2019-03-20T09:24:01.464Z,39.75
2019-03-20T09:26:29.874Z,36.50
2019-03-20T09:28:58.255Z,45.92
2019-03-20T09:31:26.667Z,40.55
2019-03-20T09:33:55.149Z,37.35
2019-03-20T09:36:23.595Z,39.05
2019-03-20T09:38:53.146Z,37.60
2019-03-20T09:41:21.578Z,39.95
2019-03-20T09:43:51.437Z,39.05
2019-03-20T09:46:19.831Z,41.10
2019-03-20T09:48:48.273Z,41.18
2019-03-20T09:51:16.712Z,38.85
2019-03-20T09:53:46.166Z,40.60
2019-03-20T09:56:14.613Z,35.43
2019-03-20T09:58:43.004Z,36.23
2019-03-20T10:01:11.420Z,36.42
2019-03-20T10:03:43.573Z,36.03
2019-03-20T10:06:13.074Z,40.92
2019-03-20T10:08:41.528Z,39.63
2019-03-20T10:11:09.919Z,38.08
2019-03-20T10:13:38.321Z,37.67
2019-03-20T10:16:08.495Z,40.73
2019-03-20T10:18:36.927Z,33.33
2019-03-20T10:21:05.416Z,42.15
2019-03-20T10:23:37.647Z,40.07
2019-03-20T10:26:06.049Z,34.38
2019-03-20T10:28:38.305Z,35.40
2019-03-20T10:31:07.825Z,40.25
2019-03-20T10:33:36.215Z,35.20
2019-03-20T10:36:08.748Z,38.88
2019-03-20T10:41:04.935Z,35.80
2019-03-20T10:43:33.336Z,41.63
2019-03-20T10:46:01.936Z,38.38
2019-03-20T10:48:30.351Z,45.43
2019-03-20T10:50:58.765Z,41.23
2019-03-20T10:53:27.194Z,39.07
2019-03-20T10:55:55.604Z,45.83
2019-03-20T10:58:27.475Z,45.00
2019-03-20T11:00:55.093Z,40.92
2019-03-20T11:03:23.489Z,46.63
2019-03-20T11:05:52.990Z,44.60
2019-03-20T11:08:21.578Z,45.83
2019-03-20T11:10:50.178Z,44.93
2019-03-20T11:13:18.553Z,44.67
2019-03-20T11:15:50.930Z,48.30
2019-03-20T11:18:20.897Z,49.42
2019-03-20T11:20:49.304Z,47.30
2019-03-20T11:23:17.744Z,41.28
2019-03-20T11:25:46.164Z,50.40
2019-03-20T11:28:14.587Z,42.30
2019-03-20T11:30:45.676Z,45.77
2019-03-20T11:33:14.094Z,53.85
2019-03-20T11:35:42.681Z,48.40
2019-03-20T11:38:12.400Z,48.75
2019-03-20T11:40:41.766Z,50.73
2019-03-20T11:43:12.798Z,50.85
2019-03-20T11:45:43.820Z,45.60
2019-03-20T11:48:11.373Z,48.90
2019-03-20T11:50:40.848Z,44.10
2019-03-20T11:53:10.026Z,49.10
2019-03-20T11:55:38.767Z,48.87
2019-03-20T11:58:08.768Z,47.93
2019-03-20T12:00:37.179Z,48.75
2019-03-20T12:03:11.977Z,51.15
2019-03-20T12:05:40.969Z,42.17
2019-03-20T12:08:09.384Z,48.48
2019-03-20T12:10:38.747Z,44.55
2019-03-20T12:13:07.158Z,50.12
2019-03-20T12:15:39.186Z,53.70
2019-03-20T12:18:07.586Z,53.02
2019-03-20T12:20:36.990Z,57.17
2019-03-20T12:23:05.558Z,58.83
2019-03-20T12:25:36.036Z,52.00
2019-03-20T12:28:04.834Z,57.78
2019-03-20T12:30:39.932Z,55.00
2019-03-20T12:33:07.843Z,58.85
2019-03-20T12:35:46.589Z,54.08
2019-03-20T12:38:15.934Z,61.37
2019-03-20T12:40:44.415Z,63.20
2019-03-20T12:43:12.898Z,63.48
2019-03-20T12:45:41.405Z,60.83
2019-03-20T12:48:12.889Z,61.10
2019-03-20T12:50:41.322Z,61.30
2019-03-20T12:53:18.930Z,70.40
2019-03-20T12:55:47.404Z,64.25
2019-03-20T12:58:15.849Z,65.12
2019-03-20T13:05:40.223Z,57.95
2019-03-20T13:08:08.663Z,57.78
2019-03-20T13:10:37.112Z,73.27
2019-03-20T13:13:05.929Z,60.90
2019-03-20T13:15:34.318Z,61.55
2019-03-20T13:18:06.373Z,61.58
2019-03-20T13:20:34.795Z,58.83
2019-03-20T13:23:06.983Z,61.42
2019-03-20T13:25:35.392Z,54.10
2019-03-20T13:28:03.862Z,60.43
2019-03-20T13:30:48.916Z,59.33
2019-03-20T13:33:25.714Z,65.28
2019-03-20T13:35:48.086Z,70.95
2019-03-20T13:38:19.542Z,59.70
2019-03-20T13:40:47.979Z,67.75
2019-03-20T13:43:16.454Z,62.08
2019-03-20T13:45:47.582Z,66.17
2019-03-20T13:48:21.259Z,64.77
2019-03-20T13:50:49.654Z,62.53
2019-03-20T13:53:19.165Z,60.95
2019-03-20T13:55:52.624Z,60.70
2019-03-20T13:58:22.328Z,66.55
2019-03-20T14:00:50.772Z,56.90
2019-03-20T14:03:20.116Z,61.58
2019-03-20T14:05:48.599Z,60.05
2019-03-20T14:08:17.015Z,67.50
2019-03-20T14:10:50.442Z,70.60
2019-03-20T14:13:15.607Z,53.78
2019-03-20T14:15:45.276Z,68.85
2019-03-20T14:18:13.645Z,64.92
2019-03-20T14:20:42.083Z,62.50
2019-03-20T14:23:12.890Z,64.30
2019-03-20T14:25:40.635Z,64.50
2019-03-20T14:28:09.074Z,73.75
2019-03-20T14:30:37.471Z,70.32
2019-03-20T14:33:05.861Z,67.92
2019-03-20T14:35:34.325Z,67.37
2019-03-20T14:38:02.732Z,69.75
2019-03-20T14:40:36.005Z,64.60
2019-03-20T14:43:02.456Z,68.20
2019-03-20T14:45:31.076Z,77.78
2019-03-20T14:47:59.513Z,73.50
2019-03-20T14:50:29.422Z,72.75
2019-03-20T14:53:17.183Z,79.17
2019-03-20T14:55:47.933Z,73.47
2019-03-20T14:58:15.731Z,73.37
2019-03-20T15:00:44.180Z,71.60
2019-03-20T15:03:12.612Z,76.97
2019-03-20T15:05:41.087Z,73.35
2019-03-20T15:08:09.495Z,82.60
2019-03-20T15:10:45.685Z,77.12
2019-03-20T15:13:08.104Z,72.30
2019-03-20T15:15:42.741Z,78.17
2019-03-20T15:18:11.147Z,80.05
2019-03-20T15:20:39.571Z,79.10
2019-03-20T15:23:08.006Z,83.55
2019-03-20T15:25:36.424Z,83.45
2019-03-20T15:28:05.377Z,83.00
2019-03-20T15:30:33.903Z,82.50
2019-03-20T15:33:02.347Z,81.78
2019-03-20T15:35:30.767Z,78.50
2019-03-20T15:37:59.220Z,82.92
2019-03-20T15:40:29.715Z,80.03
2019-03-20T15:42:58.180Z,77.82
2019-03-20T15:45:27.668Z,82.47
2019-03-20T15:47:56.073Z,75.90
2019-03-20T15:50:29.213Z,80.30
2019-03-20T15:52:57.624Z,75.80
2019-03-20T15:55:33.069Z,79.87
2019-03-20T15:58:01.553Z,83.30
2019-03-20T16:00:30.194Z,77.55
2019-03-20T16:03:13.241Z,78.75
2019-03-20T16:05:42.208Z,76.45
2019-03-20T16:08:10.606Z,77.27
2019-03-20T16:10:39.096Z,79.00
2019-03-20T16:13:08.453Z,77.62
2019-03-20T16:15:36.888Z,75.57
2019-03-20T16:18:05.287Z,74.55
2019-03-20T16:20:33.684Z,76.25
2019-03-20T16:23:02.071Z,79.03
2019-03-20T16:25:30.919Z,77.72
2019-03-20T16:27:59.327Z,83.17
2019-03-20T16:30:30.117Z,75.15
2019-03-20T16:32:58.516Z,81.95
2019-03-20T16:35:28.760Z,80.77
2019-03-20T16:37:57.150Z,83.62
2019-03-20T16:40:27.284Z,81.72
2019-03-20T16:42:56.842Z,88.00
2019-03-20T16:45:34.385Z,80.43
2019-03-20T16:48:03.021Z,79.17
2019-03-20T16:50:55.322Z,94.30
2019-03-20T16:53:28.283Z,91.50
2019-03-20T16:55:57.055Z,86.40
2019-03-20T16:58:25.439Z,98.37
2019-03-20T17:00:53.879Z,100.50
2019-03-20T17:03:26.443Z,107.03
2019-03-20T17:05:54.949Z,96.10
2019-03-20T17:08:23.381Z,95.83
2019-03-20T17:10:51.815Z,101.33
2019-03-20T17:13:20.339Z,101.42
2019-03-20T17:15:48.763Z,102.80
2019-03-20T17:18:19.819Z,109.97
2019-03-20T17:20:51.635Z,108.00
2019-03-20T17:23:24.684Z,116.28
2019-03-20T17:25:54.448Z,110.37
2019-03-20T17:28:22.844Z,111.92
2019-03-20T17:30:53.723Z,107.87
2019-03-20T17:33:26.672Z,113.52
2019-03-20T17:35:55.108Z,106.35
2019-03-20T17:38:23.519Z,112.40
2019-03-20T17:41:01.288Z,105.72
2019-03-20T17:43:29.667Z,103.03
2019-03-20T17:45:58.068Z,124.60
2019-03-20T17:48:26.465Z,116.83
2019-03-20T17:50:54.901Z,114.35
2019-03-20T17:53:24.321Z,109.80
2019-03-20T17:55:59.601Z,112.57
2019-03-20T17:58:26.579Z,111.17
2019-03-20T18:00:56.677Z,111.00
2019-03-20T18:03:25.083Z,113.15
2019-03-20T18:05:53.497Z,120.37
2019-03-20T18:08:26.061Z,117.40
2019-03-20T18:10:53.201Z,122.02
2019-03-20T18:13:25.677Z,119.57
2019-03-20T18:18:21.878Z,110.83
2019-03-20T18:20:50.322Z,118.50
2019-03-20T18:23:18.738Z,118.80
2019-03-20T18:25:48.937Z,113.30
2019-03-20T18:28:21.694Z,114.47
2019-03-20T18:30:51.238Z,114.92
2019-03-20T18:33:21.364Z,112.06
2019-03-20T18:35:50.241Z,112.17
2019-03-20T18:38:33.498Z,110.30
2019-03-20T18:41:02.061Z,124.07
2019-03-20T18:43:32.952Z,111.67
2019-03-20T18:46:03.953Z,124.22
2019-03-20T18:48:36.257Z,120.10
2019-03-20T18:51:08.777Z,116.82
2019-03-20T18:53:37.253Z,118.30
2019-03-20T18:56:08.118Z,127.32
2019-03-20T18:58:36.597Z,117.53
2019-03-20T19:01:05.195Z,119.02
2019-03-20T19:03:36.630Z,119.27
2019-03-20T19:06:14.685Z,131.78
2019-03-20T19:08:43.200Z,123.13
2019-03-20T19:11:11.723Z,119.28
2019-03-20T19:13:40.576Z,118.02
2019-03-20T19:16:08.981Z,116.88
2019-03-20T19:18:39.294Z,118.13
2019-03-20T19:21:07.699Z,112.30
2019-03-20T19:23:37.173Z,111.05
2019-03-20T19:26:08.337Z,111.32
2019-03-20T19:28:36.750Z,107.90
2019-03-20T19:31:05.345Z,109.05
2019-03-20T19:33:33.771Z,113.10
2019-03-20T19:36:02.167Z,109.65
2019-03-20T19:38:34.802Z,110.63
2019-03-20T19:41:01.390Z,109.22
2019-03-20T19:43:30.534Z,119.23
2019-03-20T19:45:59.086Z,106.15
2019-03-20T19:48:29.462Z,104.00
2019-03-20T19:50:57.614Z,107.50
2019-03-20T19:53:26.015Z,111.63
2019-03-20T19:55:54.441Z,107.63
2019-03-20T19:58:22.869Z,111.80
2019-03-20T20:00:51.313Z,110.92
2019-03-20T20:03:20.592Z,108.56
2019-03-20T20:05:48.993Z,112.97
2019-03-20T20:08:17.382Z,111.25
2019-03-20T20:10:45.828Z,108.42
2019-03-20T20:13:14.260Z,112.40
2019-03-20T20:15:42.705Z,118.15
2019-03-20T20:18:11.145Z,107.85
2019-03-20T20:20:40.536Z,110.17
2019-03-20T20:23:08.914Z,114.82
2019-03-20T20:25:37.366Z,112.20
2019-03-20T20:28:06.723Z,111.70
2019-03-20T20:30:35.139Z,113.05
2019-03-20T20:33:03.665Z,118.55
2019-03-20T20:35:32.054Z,125.38
2019-03-20T20:38:00.873Z,121.87
2019-03-20T20:40:30.407Z,119.28
2019-03-20T20:42:58.905Z,132.07
2019-03-20T20:45:28.485Z,121.47
2019-03-20T20:47:56.932Z,111.57
2019-03-20T20:50:25.323Z,122.47
2019-03-20T20:52:53.743Z,118.77
2019-03-20T20:55:23.105Z,110.57
2019-03-20T20:57:51.649Z,107.95
2019-03-20T21:00:27.039Z,121.77
2019-03-20T21:02:55.522Z,116.55
2019-03-20T21:05:23.938Z,115.75
2019-03-20T21:07:53.988Z,123.22
2019-03-20T21:10:24.418Z,109.10
2019-03-20T21:12:56.618Z,120.05
2019-03-20T21:15:38.405Z,117.05
2019-03-20T21:18:15.626Z,111.68
2019-03-20T21:20:49.947Z,116.45
2019-03-20T21:23:39.938Z,117.47
2019-03-20T21:26:09.615Z,110.52
2019-03-20T21:28:53.028Z,113.87
2019-03-20T21:31:29.134Z,115.52
2019-03-20T21:34:19.904Z,109.67
2019-03-20T21:37:14.399Z,115.42
2019-03-20T21:39:45.026Z,107.58
2019-03-20T21:42:35.211Z,116.67
2019-03-20T21:45:33.137Z,111.30
2019-03-20T21:48:04.537Z,107.63
2019-03-20T21:50:53.537Z,110.87
2019-03-20T21:53:53.771Z,115.25
2019-03-20T21:56:29.362Z,106.40
2019-03-20T21:59:24.491Z,105.07
2019-03-20T22:02:36.215Z,103.50
2019-03-20T22:05:10.066Z,104.67
2019-03-20T22:07:41.325Z,111.08
2019-03-20T22:10:25.310Z,111.03
2019-03-20T22:13:17.783Z,100.62
2019-03-20T22:16:07.709Z,108.95
2019-03-20T22:19:31.763Z,106.30
2019-03-20T22:22:16.443Z,103.27
2019-03-20T22:25:21.421Z,110.40
2019-03-20T22:28:00.274Z,108.00
2019-03-20T22:30:28.591Z,103.07
2019-03-20T22:33:14.719Z,99.70
2019-03-20T22:35:46.416Z,105.63
2019-03-20T22:38:17.894Z,111.97
2019-03-20T22:41:22.833Z,116.15
2019-03-20T22:43:54.307Z,109.10
2019-03-20T22:46:37.838Z,118.85
2019-03-20T22:49:27.727Z,110.72
2019-03-20T22:52:19.656Z,119.77
2019-03-20T22:55:07.427Z,113.23
2019-03-20T22:57:41.712Z,111.22
2019-03-20T23:00:11.064Z,120.80
2019-03-20T23:02:54.850Z,126.92
2019-03-20T23:05:23.261Z,116.85
2019-03-20T23:07:51.662Z,106.50
2019-03-20T23:10:21.138Z,110.42
2019-03-20T23:12:50.790Z,116.37
2019-03-20T23:15:20.826Z,116.55
2019-03-20T23:17:51.820Z,113.68
2019-03-20T23:20:32.263Z,111.60
2019-03-20T23:23:01.115Z,111.88
2019-03-20T23:25:29.573Z,119.57
2019-03-20T23:28:00.062Z,116.88
2019-03-20T23:30:30.602Z,109.17
2019-03-20T23:32:59.144Z,108.90
2019-03-20T23:35:27.537Z,117.43
2019-03-20T23:37:55.930Z,116.15
2019-03-20T23:40:24.350Z,119.77
2019-03-20T23:42:56.039Z,125.97
2019-03-20T23:45:24.635Z,120.42
2019-03-20T23:47:57.518Z,118.45
2019-03-20T23:50:25.997Z,120.95
2019-03-20T23:52:54.408Z,125.90
2019-03-20T23:55:22.819Z,111.40
2019-03-20T23:57:51.247Z,116.15
